Time;durP1;ratioP1;P1;durP2;ratioP2;P2;SDS_P1;SDS_P2;PMS_P1;PMS_P2;Temp;Humidity;BMP_temperature;BMP_pressure;BME280_temperature;BME280_humidity;BME280_pressure;Samples;Min_cycle;Max_cycle;Signal;HPM_P1;HPM_P2
2022/12/22 03:26:24;;;;;;;136.52;33.22;;;8.40;99.90;;;;;;5059088;28;20051;-79
2022/12/22 03:28:50;;;;;;;154.43;34.90;;;8.40;99.90;;;;;;5056645;28;20041;-79
2022/12/22 03:31:15;;;;;;;121.05;34.20;;;8.40;99.90;;;;;;5039693;28;20044;-79
2022/12/22 03:33:41;;;;;;;115.15;32.97;;;8.40;99.90;;;;;;5040943;28;20491;-79
2022/12/22 03:36:08;;;;;;;178.05;36.40;;;8.40;99.90;;;;;;5056202;28;20048;-79
2022/12/22 03:38:33;;;;;;;125.90;33.25;;;8.40;99.90;;;;;;5040087;28;20592;-79
2022/12/22 03:40:59;;;;;;;177.38;36.97;;;8.40;99.90;;;;;;5042237;28;20119;-79
2022/12/22 03:46:29;;;;;;;160.25;35.65;;;8.40;99.90;;;;;;5060195;28;20052;-79
2022/12/22 03:49:08;;;;;;;108.03;33.25;;;8.40;99.90;;;;;;5038234;28;20036;-79
2022/12/22 03:51:42;;;;;;;200.02;36.42;;;8.40;99.90;;;;;;5041793;28;20529;-79
2022/12/22 03:54:09;;;;;;;179.88;35.85;;;8.40;99.90;;;;;;5051728;28;20040;-79
2022/12/22 03:56:35;;;;;;;91.03;31.70;;;8.40;99.90;;;;;;5043826;28;20499;-79
2022/12/22 03:59:01;;;;;;;193.60;36.40;;;8.40;99.90;;;;;;5058410;28;20614;-79
2022/12/22 04:01:27;;;;;;;92.28;31.55;;;8.40;99.90;;;;;;5040551;28;20048;-79
2022/12/22 04:03:53;;;;;;;198.52;34.90;;;8.40;99.90;;;;;;5035264;28;20115;-79
2022/12/22 04:06:19;;;;;;;228.30;37.28;;;8.40;99.90;;;;;;5042671;28;20067;-79
2022/12/22 04:08:45;;;;;;;130.65;33.10;;;8.50;99.90;;;;;;5055779;28;20045;-79
2022/12/22 04:14:01;;;;;;;93.80;31.33;;;8.50;99.90;;;;;;5051269;28;20044;-79
2022/12/22 04:16:26;;;;;;;167.95;35.33;;;8.40;99.90;;;;;;5059744;28;20041;-79
2022/12/22 04:18:52;;;;;;;258.77;38.28;;;8.40;99.90;;;;;;5043932;28;20046;-79
2022/12/22 04:21:17;;;;;;;284.60;39.92;;;8.50;99.90;;;;;;5060637;28;20036;-79
2022/12/22 04:23:43;;;;;;;209.85;36.05;;;8.50;99.90;;;;;;5043160;28;20043;-79
2022/12/22 04:26:09;;;;;;;278.80;37.70;;;8.50;99.90;;;;;;5061197;28;20498;-79
2022/12/22 04:28:34;;;;;;;110.18;31.42;;;8.40;99.90;;;;;;5044870;28;20498;-79
2022/12/22 04:31:00;;;;;;;126.47;30.75;;;8.50;99.90;;;;;;5057853;28;20037;-79
2022/12/22 04:33:25;;;;;;;111.07;32.13;;;8.50;99.90;;;;;;5054181;28;20039;-79
2022/12/22 04:35:51;;;;;;;254.35;38.78;;;8.40;99.90;;;;;;5040879;28;20045;-79
2022/12/22 04:38:16;;;;;;;276.83;38.35;;;8.50;99.90;;;;;;5058195;28;20116;-79
2022/12/22 04:40:42;;;;;;;113.70;32.67;;;8.40;99.90;;;;;;5053627;28;20491;-79
2022/12/22 04:43:08;;;;;;;184.70;36.38;;;8.40;99.90;;;;;;5059835;28;20044;-79
2022/12/22 04:45:33;;;;;;;262.80;38.05;;;8.40;99.90;;;;;;5045287;28;20036;-79
2022/12/22 04:47:59;;;;;;;293.08;40.00;;;8.40;99.90;;;;;;5045576;28;20494;-79
2022/12/22 04:50:25;;;;;;;217.75;38.25;;;8.40;99.90;;;;;;5063145;28;20041;-79
2022/12/22 04:52:50;;;;;;;172.82;34.10;;;8.40;99.90;;;;;;5043865;28;20051;-79
2022/12/22 04:55:16;;;;;;;328.88;41.67;;;8.40;99.90;;;;;;5062636;28;20079;-79
2022/12/22 04:57:41;;;;;;;258.13;39.60;;;8.40;99.90;;;;;;5044759;28;20043;-79
2022/12/22 05:00:08;;;;;;;164.77;34.40;;;8.40;99.90;;;;;;5063386;28;20410;-79
2022/12/22 05:02:33;;;;;;;190.93;35.78;;;8.40;99.90;;;;;;5044248;28;20043;-79
2022/12/22 05:04:59;;;;;;;267.88;38.50;;;8.40;99.90;;;;;;5046428;28;20032;-79
2022/12/22 05:07:24;;;;;;;188.77;34.85;;;8.40;99.90;;;;;;5046228;28;20040;-79
2022/12/22 05:09:50;;;;;;;333.10;41.50;;;8.40;99.90;;;;;;5054394;28;20052;-79
2022/12/22 05:15:00;;;;;;;265.60;38.33;;;8.40;99.90;;;;;;5065286;28;20090;-79
2022/12/22 05:17:26;;;;;;;233.00;38.38;;;8.40;99.90;;;;;;5065045;28;20054;-79
2022/12/22 05:19:51;;;;;;;142.88;34.28;;;8.40;99.90;;;;;;5065091;28;20115;-79
2022/12/22 05:22:17;;;;;;;254.55;36.55;;;8.40;99.90;;;;;;5060520;28;20075;-79
2022/12/22 05:24:42;;;;;;;167.38;33.85;;;8.40;99.90;;;;;;5047386;28;20098;-79
2022/12/22 05:27:10;;;;;;;134.10;31.80;;;8.40;99.90;;;;;;5046561;28;20040;-79
2022/12/22 05:29:35;;;;;;;209.15;33.58;;;8.40;99.90;;;;;;5047204;28;20475;-79
2022/12/22 05:32:01;;;;;;;141.18;31.35;;;8.40;99.90;;;;;;5052936;28;20036;-79
2022/12/22 05:34:27;;;;;;;136.38;31.02;;;8.40;99.90;;;;;;5037264;28;20040;-79
2022/12/22 05:36:52;;;;;;;225.30;35.78;;;8.40;99.90;;;;;;5053103;28;20115;-79
2022/12/22 05:39:18;;;;;;;179.00;33.35;;;8.40;99.90;;;;;;5056836;28;20505;-79
2022/12/22 05:41:44;;;;;;;180.32;33.78;;;8.40;99.90;;;;;;5040437;28;20064;-79
2022/12/22 05:44:09;;;;;;;231.20;35.63;;;8.40;99.90;;;;;;5036073;28;20045;-79
2022/12/22 05:46:35;;;;;;;251.75;35.78;;;8.40;99.90;;;;;;5040979;28;20036;-79
2022/12/22 05:49:00;;;;;;;202.00;33.60;;;8.40;99.90;;;;;;5034919;28;20130;-79
2022/12/22 05:51:26;;;;;;;188.82;32.78;;;8.30;99.90;;;;;;5037607;28;20029;-79
2022/12/22 05:53:51;;;;;;;272.92;35.33;;;8.30;99.90;;;;;;5038725;28;20036;-79
2022/12/22 05:56:17;;;;;;;198.95;32.92;;;8.40;99.90;;;;;;5040403;28;20040;-79
2022/12/22 05:58:43;;;;;;;288.02;35.63;;;8.30;99.90;;;;;;5055596;28;20044;-79
2022/12/22 06:01:08;;;;;;;314.75;37.33;;;8.30;99.90;;;;;;5050007;28;20394;-80
2022/12/22 06:03:34;;;;;;;266.50;35.38;;;8.30;99.90;;;;;;5050631;28;20123;-79
2022/12/22 06:05:59;;;;;;;186.18;33.83;;;8.30;99.90;;;;;;5053837;28;20036;-80
2022/12/22 06:08:26;;;;;;;293.40;36.20;;;8.30;99.90;;;;;;5050531;28;20047;-80
2022/12/22 06:10:54;;;;;;;235.68;34.15;;;8.30;99.90;;;;;;5033217;28;20050;-80
2022/12/22 06:13:19;;;;;;;235.32;35.15;;;8.30;99.90;;;;;;5049037;28;20043;-79
2022/12/22 06:15:47;;;;;;;330.20;39.78;;;8.30;99.90;;;;;;5054219;28;20121;-80
2022/12/22 06:18:12;;;;;;;232.00;36.35;;;8.30;99.90;;;;;;5035223;28;20028;-77
2022/12/22 06:20:38;;;;;;;247.35;36.28;;;8.30;99.90;;;;;;5051079;28;20074;-79
2022/12/22 06:23:03;;;;;;;339.65;38.58;;;8.30;99.90;;;;;;5053011;28;20036;-79
2022/12/22 06:25:29;;;;;;;231.93;36.33;;;8.20;99.90;;;;;;5035098;28;20123;-78
2022/12/22 06:27:55;;;;;;;302.45;36.85;;;8.20;99.90;;;;;;5049596;28;20041;-78
2022/12/22 06:30:20;;;;;;;296.23;38.85;;;8.20;99.90;;;;;;5049683;28;20043;-76
2022/12/22 06:32:46;;;;;;;189.30;35.03;;;8.20;99.90;;;;;;5040948;28;20494;-80
2022/12/22 06:35:12;;;;;;;191.18;33.88;;;8.10;99.90;;;;;;5054601;28;20068;-79
2022/12/22 06:37:37;;;;;;;202.25;33.67;;;8.10;99.90;;;;;;5050591;28;20040;-81
2022/12/22 06:40:03;;;;;;;268.85;35.25;;;8.00;99.90;;;;;;5049067;28;20059;-80
2022/12/22 06:45:13;;;;;;;203.85;31.60;;;7.90;99.90;;;;;;5054475;28;20527;-79
2022/12/22 06:47:39;;;;;;;217.65;34.60;;;7.80;99.90;;;;;;5054838;28;20040;-79
2022/12/22 06:50:05;;;;;;;200.98;33.08;;;7.70;99.90;;;;;;5041502;28;20406;-79
2022/12/22 06:52:31;;;;;;;232.93;32.15;;;7.70;99.90;;;;;;5058326;28;20044;-79
2022/12/22 06:54:56;;;;;;;129.98;29.77;;;7.60;99.90;;;;;;5049036;28;20337;-81
2022/12/22 06:57:22;;;;;;;330.50;36.38;;;7.50;99.90;;;;;;5052267;28;20040;-82
2022/12/22 06:59:47;;;;;;;272.10;34.65;;;7.50;99.90;;;;;;5035162;28;20115;-82
2022/12/22 07:02:13;;;;;;;235.45;33.78;;;7.40;99.90;;;;;;5058141;28;20448;-82
2022/12/22 07:04:38;;;;;;;128.25;28.90;;;7.30;99.90;;;;;;5040689;28;20067;-82
2022/12/22 07:07:04;;;;;;;218.38;33.65;;;7.20;99.90;;;;;;5047984;28;20094;-81
2022/12/22 07:09:30;;;;;;;219.55;31.10;;;7.20;99.90;;;;;;5045982;28;20043;-81
2022/12/22 07:11:55;;;;;;;291.30;33.95;;;7.20;99.90;;;;;;5041433;28;20040;-82
2022/12/22 07:14:21;;;;;;;274.73;34.35;;;7.10;99.90;;;;;;5042357;28;20037;-82
2022/12/22 07:16:46;;;;;;;323.20;37.67;;;7.20;99.90;;;;;;5047258;28;20045;-81
2022/12/22 07:19:12;;;;;;;411.27;38.95;;;7.20;99.90;;;;;;5041253;28;20029;-81
2022/12/22 07:21:38;;;;;;;414.23;40.50;;;7.20;99.90;;;;;;5055702;28;20494;-82
2022/12/22 07:24:04;;;;;;;381.20;38.38;;;7.20;99.90;;;;;;5041375;28;20155;-82
2022/12/22 07:26:30;;;;;;;414.27;40.08;;;7.20;99.90;;;;;;5045881;28;20299;-82
2022/12/22 07:28:55;;;;;;;286.00;33.53;;;7.20;99.90;;;;;;5056539;28;20084;-81
2022/12/22 07:31:22;;;;;;;370.98;37.67;;;7.20;99.90;;;;;;5034376;28;20044;-82
2022/12/22 07:33:47;;;;;;;325.08;36.85;;;7.20;99.90;;;;;;5061344;28;20040;-82
2022/12/22 07:36:16;;;;;;;357.02;36.28;;;7.20;99.90;;;;;;5042283;28;20094;-81
2022/12/22 07:38:44;;;;;;;252.32;30.88;;;7.20;99.90;;;;;;5059529;28;20033;-82
2022/12/22 07:43:58;;;;;;;315.98;32.67;;;7.20;99.90;;;;;;5062470;28;20412;-81
2022/12/22 07:46:26;;;;;;;250.30;30.95;;;7.10;99.90;;;;;;5040855;28;20042;-82
2022/12/22 07:51:38;;;;;;;182.45;25.38;;;7.10;99.90;;;;;;5058713;28;20052;-82
2022/12/22 07:54:05;;;;;;;220.68;26.27;;;7.10;99.90;;;;;;5058415;28;20125;-82
2022/12/22 07:56:30;;;;;;;148.02;22.20;;;7.10;99.90;;;;;;5042133;28;20296;-81
2022/12/22 07:58:56;;;;;;;179.70;21.70;;;7.00;99.90;;;;;;5057389;28;20040;-82
2022/12/22 08:01:22;;;;;;;187.02;19.33;;;7.00;99.90;;;;;;5067744;28;20398;-81
2022/12/22 08:03:48;;;;;;;198.40;19.30;;;6.90;99.90;;;;;;5055379;28;20041;-82
2022/12/22 08:06:13;;;;;;;215.68;20.90;;;6.90;99.90;;;;;;5041161;28;20037;-81
2022/12/22 08:08:39;;;;;;;171.70;19.17;;;6.90;99.90;;;;;;5041177;28;20044;-80
2022/12/22 08:11:05;;;;;;;234.43;22.33;;;6.90;99.90;;;;;;5040947;28;20563;-82
2022/12/22 08:13:30;;;;;;;204.35;21.35;;;6.90;99.90;;;;;;5053874;28;20041;-82
2022/12/22 08:16:04;;;;;;;219.30;19.95;;;6.80;99.90;;;;;;5041596;28;20410;-82
2022/12/22 08:18:31;;;;;;;239.15;22.63;;;6.90;99.90;;;;;;5057606;28;20127;-82
2022/12/22 08:20:56;;;;;;;180.07;19.98;;;6.90;99.90;;;;;;5040718;28;20068;-81
2022/12/22 08:23:22;;;;;;;188.20;20.88;;;6.90;99.90;;;;;;5043717;28;20047;-81
2022/12/22 08:25:52;;;;;;;171.05;18.75;;;6.90;99.90;;;;;;5040414;28;20045;-81
2022/12/22 08:28:17;;;;;;;197.70;19.25;;;6.90;99.90;;;;;;5040350;28;20037;-81
2022/12/22 08:30:44;;;;;;;147.63;18.75;;;6.90;99.90;;;;;;5057762;28;20055;-80
2022/12/22 08:33:10;;;;;;;158.23;18.90;;;6.90;99.90;;;;;;5058119;28;20033;-82
2022/12/22 08:35:35;;;;;;;150.00;18.60;;;6.90;99.90;;;;;;5060134;28;20062;-81
2022/12/22 08:38:01;;;;;;;170.95;20.02;;;6.90;99.90;;;;;;5044502;28;20483;-81
2022/12/22 08:40:30;;;;;;;214.00;22.05;;;6.90;99.90;;;;;;5061666;28;20410;-81
2022/12/22 08:43:07;;;;;;;169.13;20.42;;;6.90;99.90;;;;;;5056814;28;20090;-81
2022/12/22 08:45:33;;;;;;;212.50;23.80;;;6.90;99.90;;;;;;5041492;28;20479;-82
2022/12/22 08:47:59;;;;;;;193.40;22.63;;;6.90;99.90;;;;;;5040298;28;20051;-81
2022/12/22 08:50:24;;;;;;;236.63;24.85;;;7.00;99.90;;;;;;5062014;28;20041;-81
2022/12/22 08:52:50;;;;;;;221.20;23.63;;;7.00;99.90;;;;;;5043193;28;20039;-81
2022/12/22 08:55:16;;;;;;;197.73;22.42;;;7.00;99.90;;;;;;5042373;28;20323;-81
2022/12/22 08:57:41;;;;;;;221.68;24.67;;;7.00;99.90;;;;;;5041769;28;20040;-81
2022/12/22 09:00:09;;;;;;;194.02;22.42;;;7.00;99.90;;;;;;5058799;28;20078;-81
2022/12/22 09:02:37;;;;;;;188.38;22.92;;;7.00;99.90;;;;;;5037328;28;20029;-81
2022/12/22 09:05:03;;;;;;;210.00;22.42;;;6.90;99.90;;;;;;5042776;28;20029;-81
2022/12/22 09:07:29;;;;;;;146.82;19.98;;;7.00;99.90;;;;;;5046128;28;20033;-81
2022/12/22 09:09:56;;;;;;;209.98;22.42;;;6.90;99.90;;;;;;5063417;28;20544;-81
2022/12/22 09:12:25;;;;;;;104.25;18.20;;;6.90;99.90;;;;;;5046157;28;20044;-81
2022/12/22 09:14:50;;;;;;;158.82;21.02;;;6.90;99.90;;;;;;5048388;28;20269;-81
2022/12/22 09:17:16;;;;;;;182.10;21.75;;;6.90;99.90;;;;;;5046081;28;20036;-81
2022/12/22 09:19:41;;;;;;;203.63;22.63;;;6.90;99.90;;;;;;5064106;28;20029;-81
2022/12/22 09:22:08;;;;;;;168.13;20.25;;;6.80;99.90;;;;;;5045823;28;20526;-83
2022/12/22 09:24:34;;;;;;;134.13;18.02;;;6.80;99.90;;;;;;5048242;28;20079;-82
2022/12/22 09:26:59;;;;;;;104.38;16.40;;;6.80;99.90;;;;;;5064976;28;20044;-82
2022/12/22 09:29:25;;;;;;;95.38;15.75;;;6.80;99.90;;;;;;5049219;28;20503;-81
2022/12/22 09:31:53;;;;;;;117.95;16.83;;;6.80;99.90;;;;;;5046313;28;20037;-81
2022/12/22 09:34:19;;;;;;;98.10;14.60;;;6.80;99.90;;;;;;5066215;28;20098;-81
2022/12/22 09:36:45;;;;;;;90.43;15.45;;;6.70;99.90;;;;;;5049200;28;20040;-81
2022/12/22 09:39:11;;;;;;;116.63;16.67;;;6.70;99.90;;;;;;5066559;28;20124;-81
2022/12/22 09:41:49;;;;;;;102.20;12.70;;;6.70;99.90;;;;;;5065967;28;20075;-81
2022/12/22 09:44:39;;;;;;;66.10;10.82;;;6.70;99.90;;;;;;5065319;28;20072;-83
2022/12/22 09:47:38;;;;;;;100.43;11.20;;;6.70;99.90;;;;;;5035702;28;20041;-82
2022/12/22 09:50:10;;;;;;;62.85;11.00;;;6.60;99.90;;;;;;5052370;28;20048;-83
2022/12/22 09:52:35;;;;;;;67.68;11.45;;;6.60;99.90;;;;;;5043478;28;20495;-82
2022/12/22 09:55:02;;;;;;;81.72;11.68;;;6.60;99.90;;;;;;5042398;28;20068;-82
2022/12/22 09:57:32;;;;;;;90.32;12.73;;;6.60;99.90;;;;;;5064133;28;20037;-82
2022/12/22 10:00:09;;;;;;;67.07;10.23;;;6.60;99.90;;;;;;5043347;28;20043;-82
2022/12/22 10:02:50;;;;;;;46.17;9.60;;;6.70;99.90;;;;;;5039373;28;20139;-82
2022/12/22 10:05:37;;;;;;;38.90;9.32;;;6.70;99.90;;;;;;5038730;28;20103;-83
2022/12/22 10:08:21;;;;;;;30.35;8.57;;;6.70;99.90;;;;;;5027209;28;20037;-82
2022/12/22 10:10:52;;;;;;;51.72;9.85;;;6.70;99.90;;;;;;5055944;28;20044;-81
2022/12/22 10:13:18;;;;;;;65.75;11.32;;;6.70;99.90;;;;;;5039079;28;20047;-82
2022/12/22 10:15:44;;;;;;;70.45;12.88;;;6.60;99.90;;;;;;5040220;28;20041;-82
2022/12/22 10:18:13;;;;;;;36.85;10.13;;;6.70;99.90;;;;;;5056280;28;20049;-82
2022/12/22 10:20:40;;;;;;;44.88;10.90;;;6.80;99.90;;;;;;5052923;28;20078;-82
2022/12/22 10:23:20;;;;;;;51.00;11.65;;;6.80;99.90;;;;;;5039951;28;20048;-82
2022/12/22 10:25:55;;;;;;;58.47;12.00;;;6.80;99.90;;;;;;5043282;28;20044;-83
2022/12/22 10:28:48;;;;;;;39.33;11.25;;;6.80;99.90;;;;;;5043958;28;20052;-81
2022/12/22 10:31:24;;;;;;;37.97;10.75;;;6.90;99.90;;;;;;5039271;28;20052;-82
2022/12/22 10:34:10;;;;;;;62.15;13.55;;;6.90;99.90;;;;;;5043778;28;20037;-82
2022/12/22 10:36:36;;;;;;;49.75;13.70;;;6.90;99.90;;;;;;5039697;28;20119;-82
2022/12/22 10:39:08;;;;;;;38.53;13.00;;;7.00;99.90;;;;;;5024101;28;20033;-82
2022/12/22 10:41:42;;;;;;;47.38;14.15;;;7.00;99.90;;;;;;5056599;28;20482;-82
2022/12/22 10:44:21;;;;;;;48.78;14.25;;;7.10;99.90;;;;;;5023721;28;20183;-82
2022/12/22 10:46:52;;;;;;;52.00;14.93;;;7.30;99.90;;;;;;5023821;28;20072;-82
2022/12/22 10:49:36;;;;;;;47.10;14.68;;;7.40;99.90;;;;;;5047750;28;20127;-81
2022/12/22 10:52:22;;;;;;;40.75;14.18;;;7.40;99.90;;;;;;5056301;28;20442;-81
2022/12/22 10:54:48;;;;;;;37.10;13.27;;;7.50;99.90;;;;;;5040755;28;20045;-82
2022/12/22 10:57:13;;;;;;;42.83;14.63;;;7.50;99.90;;;;;;5056940;28;20110;-82
2022/12/22 10:59:57;;;;;;;32.80;14.27;;;7.50;99.90;;;;;;5059031;28;20047;-82
2022/12/22 11:02:28;;;;;;;36.33;14.18;;;7.50;99.90;;;;;;5060676;28;20033;-81
2022/12/22 11:05:05;;;;;;;37.58;14.90;;;7.50;99.90;;;;;;5043916;28;20032;-82
2022/12/22 11:07:37;;;;;;;38.35;14.82;;;7.50;99.90;;;;;;5044171;28;20037;-83
2022/12/22 11:10:17;;;;;;;41.15;14.77;;;7.50;99.90;;;;;;5056507;28;20110;-82
2022/12/22 11:13:14;;;;;;;35.65;14.43;;;7.50;99.90;;;;;;5041055;28;20029;-82
2022/12/22 11:15:48;;;;;;;46.38;16.00;;;7.50;99.90;;;;;;5040371;28;20040;-83
2022/12/22 11:18:45;;;;;;;49.67;16.02;;;7.60;99.90;;;;;;5044537;28;20043;-82
2022/12/22 11:21:35;;;;;;;32.58;14.52;;;7.60;99.90;;;;;;5037851;28;20036;-81
2022/12/22 11:24:07;;;;;;;35.33;14.40;;;7.70;99.90;;;;;;5040620;28;20043;-82
2022/12/22 11:27:07;;;;;;;28.37;13.13;;;7.80;99.90;;;;;;5061018;28;20040;-82
2022/12/22 11:29:55;;;;;;;26.67;12.93;;;8.00;99.90;;;;;;5061660;28;20294;-82
2022/12/22 11:32:42;;;;;;;34.83;13.52;;;8.10;99.90;;;;;;5054749;28;20051;-82
2022/12/22 11:35:16;;;;;;;23.25;12.30;;;8.20;99.90;;;;;;5037123;28;20045;-82
2022/12/22 11:38:32;;;;;;;24.67;12.05;;;8.30;99.90;;;;;;5060704;28;20039;-82
2022/12/22 11:41:29;;;;;;;27.23;12.85;;;8.40;99.90;;;;;;5012177;28;20040;-82
2022/12/22 11:44:09;;;;;;;27.38;12.68;;;8.60;99.90;;;;;;5044971;28;20127;-81
2022/12/22 11:47:13;;;;;;;23.45;12.07;;;8.80;99.90;;;;;;5044820;28;20487;-82
2022/12/22 11:49:54;;;;;;;21.08;11.60;;;9.10;99.90;;;;;;5008804;28;20135;-82
2022/12/22 11:52:56;;;;;;;26.67;12.30;;;9.20;99.90;;;;;;5063068;28;20070;-82
2022/12/22 11:55:34;;;;;;;25.52;11.90;;;9.40;99.90;;;;;;5046585;28;20379;-82
2022/12/22 11:58:09;;;;;;;25.88;12.88;;;9.50;99.90;;;;;;5062074;22;20042;-74
2022/12/22 12:00:44;;;;;;;25.05;12.57;;;9.60;99.90;;;;;;4999775;28;20041;-75
2022/12/22 12:03:23;;;;;;;26.40;13.25;;;9.80;99.90;;;;;;5010812;28;20081;-75
2022/12/22 12:05:57;;;;;;;26.20;12.30;;;10.00;99.90;;;;;;4998381;28;20041;-75
2022/12/22 12:08:39;;;;;;;23.65;11.75;;;10.20;99.90;;;;;;4999134;28;20037;-75
2022/12/22 12:11:19;;;;;;;24.60;11.95;;;10.30;99.90;;;;;;4983723;28;20496;-75
2022/12/22 12:14:25;;;;;;;22.42;12.43;;;10.40;99.90;;;;;;4981057;28;20456;-76
2022/12/22 12:16:58;;;;;;;24.65;11.93;;;10.40;99.90;;;;;;4977824;28;20046;-75
2022/12/22 12:19:34;;;;;;;27.08;11.30;;;10.50;99.90;;;;;;4976238;28;20045;-75
2022/12/22 12:22:07;;;;;;;22.33;11.85;;;10.50;99.90;;;;;;4976579;28;20121;-75
2022/12/22 12:24:47;;;;;;;;;;;10.40;99.90;;;;;;4976675;28;20082;-75
2022/12/22 12:27:35;;;;;;;20.80;10.13;;;10.30;99.90;;;;;;4978125;28;19924;-75
2022/12/22 12:30:16;;;;;;;20.08;10.90;;;10.30;99.90;;;;;;4985395;28;20172;-75
2022/12/22 12:33:12;;;;;;;15.45;8.88;;;10.30;99.90;;;;;;4988399;28;20037;-75
2022/12/22 12:35:52;;;;;;;15.57;8.25;;;10.20;99.90;;;;;;4995230;28;20453;-75
2022/12/22 12:38:56;;;;;;;18.48;9.00;;;10.10;99.90;;;;;;4970779;28;20129;-75
2022/12/22 12:41:49;;;;;;;16.33;8.23;;;10.00;99.90;;;;;;4979742;28;20029;-75
2022/12/22 12:44:19;;;;;;;16.95;9.50;;;10.00;99.90;;;;;;4998668;28;20103;-75
2022/12/22 12:46:55;;;;;;;19.13;8.82;;;10.10;99.90;;;;;;4995100;28;20075;-76
2022/12/22 12:49:32;;;;;;;16.02;7.95;;;10.10;99.90;;;;;;4990192;28;20051;-76
2022/12/22 12:52:02;;;;;;;17.05;7.78;;;10.10;99.90;;;;;;4998622;28;20088;-76
2022/12/22 12:54:28;;;;;;;13.20;7.78;;;10.00;99.90;;;;;;4983256;28;20042;-76
2022/12/22 12:57:08;;;;;;;14.13;7.75;;;9.90;99.90;;;;;;4996986;28;20046;-76
2022/12/22 12:59:40;;;;;;;14.77;8.15;;;9.80;99.90;;;;;;4979094;28;20073;-76
2022/12/22 13:02:30;;;;;;;12.70;7.47;;;9.60;99.90;;;;;;4976327;28;20038;-76
2022/12/22 13:05:11;;;;;;;15.05;8.05;;;9.50;99.90;;;;;;4959414;28;20492;-76
2022/12/22 13:08:09;;;;;;;13.27;8.02;;;9.40;99.90;;;;;;4975526;28;20042;-76
2022/12/22 13:11:07;;;;;;;11.18;7.28;;;9.30;99.90;;;;;;4971759;28;20042;-76
2022/12/22 13:13:38;;;;;;;13.68;7.90;;;9.30;99.90;;;;;;4973318;28;20103;-76
2022/12/22 13:16:06;;;;;;;13.70;7.85;;;9.30;99.90;;;;;;4973186;28;20495;-76
2022/12/22 13:18:34;;;;;;;16.73;7.75;;;9.30;99.90;;;;;;4969394;28;20045;-76
2022/12/22 13:21:24;;;;;;;11.13;7.40;;;9.30;99.90;;;;;;4999366;28;20109;-76
2022/12/22 13:24:13;;;;;;;15.60;7.10;;;9.20;99.90;;;;;;4975151;28;20046;-76
2022/12/22 13:26:41;;;;;;;15.32;6.45;;;9.20;99.90;;;;;;4975300;28;20138;-76
2022/12/22 13:29:14;;;;;;;12.25;6.75;;;9.10;99.90;;;;;;4974891;28;20566;-76
2022/12/22 13:31:41;;;;;;;;;;;9.10;99.90;;;;;;4976765;28;20045;-76
2022/12/22 13:34:47;;;;;;;13.40;6.43;;;9.00;99.90;;;;;;4985759;28;19917;-76
2022/12/22 13:37:28;;;;;;;10.55;6.30;;;9.00;99.90;;;;;;4950031;28;20136;-76
2022/12/22 13:40:16;;;;;;;8.80;5.70;;;9.00;99.90;;;;;;4959082;28;20057;-76
2022/12/22 13:42:53;;;;;;;9.68;5.57;;;8.90;99.90;;;;;;4959110;28;20607;-77
2022/12/22 13:45:53;;;;;;;11.13;6.05;;;8.80;99.90;;;;;;4959073;28;20053;-76
2022/12/22 13:49:06;;;;;;;14.57;5.57;;;8.90;99.90;;;;;;4981903;28;20065;-77
2022/12/22 13:51:39;;;;;;;10.57;5.72;;;8.60;99.90;;;;;;4897592;29;20477;-77
2022/12/22 13:54:17;;;;;;;10.88;5.55;;;8.70;99.90;;;;;;4897607;29;20291;-76
2022/12/22 13:56:57;;;;;;;12.07;5.30;;;8.70;99.90;;;;;;4951842;28;20113;-76
2022/12/22 13:59:37;;;;;;;13.85;5.70;;;8.60;99.90;;;;;;4988981;28;20119;-76
2022/12/22 14:02:11;;;;;;;14.45;5.18;;;8.60;99.90;;;;;;4998007;28;20044;-77
2022/12/22 14:04:40;;;;;;;10.77;5.68;;;8.50;99.90;;;;;;4972376;28;20074;-76
2022/12/22 14:07:19;;;;;;;13.90;5.53;;;8.40;99.90;;;;;;4986135;28;20088;-76
2022/12/22 14:09:59;;;;;;;13.32;5.80;;;8.40;99.90;;;;;;4972651;28;20050;-77
2022/12/22 14:12:43;;;;;;;8.65;5.22;;;8.40;99.90;;;;;;4972529;28;20042;-76
2022/12/22 14:15:18;;;;;;;11.95;6.45;;;8.30;99.90;;;;;;4970970;28;20049;-76
2022/12/22 14:17:49;;;;;;;13.65;6.38;;;8.20;99.90;;;;;;4978035;28;20038;-76
2022/12/22 14:20:42;;;;;;;13.90;6.40;;;8.30;99.90;;;;;;4975874;28;20580;-76
2022/12/22 14:23:26;;;;;;;13.65;6.57;;;8.20;99.90;;;;;;4981789;28;20097;-76
2022/12/22 14:25:55;;;;;;;11.85;6.75;;;8.20;99.90;;;;;;4985389;28;20099;-76
2022/12/22 14:28:42;;;;;;;13.50;6.82;;;8.20;99.90;;;;;;4977716;28;20046;-76
2022/12/22 14:31:18;;;;;;;10.55;6.65;;;8.30;99.90;;;;;;4978401;28;20049;-76
2022/12/22 14:34:05;;;;;;;11.02;7.38;;;8.20;99.90;;;;;;4994164;28;20042;-76
2022/12/22 14:36:44;;;;;;;11.27;7.85;;;8.20;99.90;;;;;;4975778;28;20042;-77
2022/12/22 14:39:53;;;;;;;14.48;7.65;;;8.20;99.90;;;;;;4984612;28;20060;-77
2022/12/22 14:42:24;;;;;;;13.30;8.00;;;8.20;99.90;;;;;;4958943;28;20084;-77
2022/12/22 14:44:53;;;;;;;12.45;7.43;;;8.20;99.90;;;;;;4978246;28;20041;-77
2022/12/22 14:47:24;;;;;;;11.68;7.72;;;8.10;99.90;;;;;;4977483;28;20038;-76
2022/12/22 14:49:57;;;;;;;10.48;7.57;;;8.10;99.90;;;;;;4972748;28;20046;-76
2022/12/22 14:52:43;;;;;;;10.77;7.90;;;8.10;99.90;;;;;;4970343;28;20046;-76
2022/12/22 14:55:31;;;;;;;12.55;8.05;;;8.10;99.90;;;;;;4977598;28;20107;-76
2022/12/22 14:58:19;;;;;;;14.30;8.23;;;8.00;99.90;;;;;;4958574;28;20054;-76
2022/12/22 15:01:13;;;;;;;12.90;8.57;;;8.00;99.90;;;;;;4965994;28;20496;-77
2022/12/22 15:04:18;;;;;;;14.07;8.82;;;8.00;99.90;;;;;;4958952;28;20085;-77
2022/12/22 15:06:50;;;;;;;11.23;8.02;;;8.00;99.90;;;;;;4958659;28;20405;-77
2022/12/22 15:09:37;;;;;;;13.90;9.48;;;8.00;99.90;;;;;;4968575;28;20105;-77
2022/12/22 15:12:12;;;;;;;16.70;9.48;;;8.00;99.90;;;;;;4957063;28;20043;-76
2022/12/22 15:14:50;;;;;;;14.20;9.25;;;8.00;99.90;;;;;;4958648;28;20122;-76
2022/12/22 15:17:31;;;;;;;11.90;10.18;;;7.90;99.90;;;;;;4956706;28;20050;-76
2022/12/22 15:19:58;;;;;;;15.27;11.70;;;7.90;99.90;;;;;;4962097;28;20057;-76
2022/12/22 15:22:24;;;;;;;16.55;11.55;;;7.90;99.90;;;;;;4971682;28;20038;-76
2022/12/22 15:25:02;;;;;;;20.70;13.10;;;7.90;99.90;;;;;;4970804;28;20065;-76
2022/12/22 15:27:31;;;;;;;18.45;13.40;;;7.90;99.90;;;;;;4987668;28;20044;-76
2022/12/22 15:29:59;;;;;;;16.55;13.07;;;7.80;99.90;;;;;;4996522;28;20052;-76
2022/12/22 15:32:28;;;;;;;20.40;13.15;;;7.80;99.90;;;;;;4972202;28;20168;-76
2022/12/22 15:35:04;;;;;;;;;;;;;;;;;;;;;
2022/12/22 15:37:30;;;;;;;18.35;11.60;;;7.70;99.90;;;;;;4985192;28;20108;-77
2022/12/22 15:40:38;;;;;;;17.02;11.82;;;7.70;99.90;;;;;;4988313;28;20045;-77
2022/12/22 15:43:04;;;;;;;17.15;12.75;;;7.60;99.90;;;;;;4980809;28;20120;-77
2022/12/22 15:45:35;;;;;;;18.83;12.60;;;7.60;99.90;;;;;;4980322;28;20196;-77
2022/12/22 15:48:01;;;;;;;18.85;13.00;;;7.50;99.90;;;;;;4973751;28;20038;-76
2022/12/22 15:50:43;;;;;;;19.20;13.07;;;7.50;99.90;;;;;;4972858;28;20041;-76
2022/12/22 15:53:20;;;;;;;22.00;14.73;;;7.50;99.90;;;;;;4964967;28;20035;-76
2022/12/22 15:56:15;;;;;;;23.23;16.30;;;7.40;99.90;;;;;;4968374;28;20054;-77
2022/12/22 16:01:29;;;;;;;21.38;15.82;;;7.40;99.90;;;;;;4987585;28;20095;-76
2022/12/22 16:04:05;;;;;;;24.38;16.65;;;7.40;99.90;;;;;;4983061;28;20046;-76
2022/12/22 16:06:31;;;;;;;;;;;7.40;99.90;;;;;;4976197;28;20048;-76
2022/12/22 16:08:59;;;;;;;23.60;16.23;;;7.30;99.90;;;;;;4972421;28;20310;-77
2022/12/22 16:11:31;;;;;;;25.15;17.02;;;7.30;99.90;;;;;;4962624;28;20397;-76
2022/12/22 16:13:56;;;;;;;25.65;17.00;;;7.30;99.90;;;;;;4969969;28;20041;-77
2022/12/22 16:16:27;;;;;;;26.17;18.00;;;7.30;99.90;;;;;;4972098;28;20515;-77
2022/12/22 16:18:53;;;;;;;22.75;16.85;;;7.30;99.90;;;;;;4979507;28;20034;-77
2022/12/22 16:21:27;;;;;;;27.35;17.00;;;7.20;99.90;;;;;;4978349;28;20530;-77
2022/12/22 16:24:03;;;;;;;24.05;16.50;;;7.30;99.90;;;;;;4989456;28;20069;-76
2022/12/22 16:26:32;;;;;;;24.35;16.23;;;7.30;99.90;;;;;;4982037;28;20488;-76
2022/12/22 16:28:58;;;;;;;28.98;18.60;;;7.20;99.90;;;;;;4973299;28;20039;-76
2022/12/22 16:31:26;;;;;;;25.35;16.85;;;7.20;99.90;;;;;;4956812;28;20046;-76
2022/12/22 16:33:55;;;;;;;25.52;16.40;;;7.20;99.90;;;;;;4957196;28;20039;-76
2022/12/22 16:36:36;;;;;;;27.27;16.33;;;7.10;99.90;;;;;;4964108;28;20031;-76
2022/12/22 16:39:14;;;;;;;29.48;16.75;;;7.10;99.90;;;;;;4977147;28;20059;-76
2022/12/22 16:41:47;;;;;;;27.90;16.00;;;7.10;99.90;;;;;;4995531;28;20484;-76
2022/12/22 16:44:29;;;;;;;28.20;17.23;;;7.10;99.90;;;;;;4995420;28;20042;-76
2022/12/22 16:47:02;;;;;;;29.83;17.75;;;7.10;99.90;;;;;;4979087;28;20085;-76
2022/12/22 16:49:28;;;;;;;27.98;17.42;;;7.10;99.90;;;;;;4962545;28;20180;-76